sensor_id;sensor_type;location;lat;lon;timestamp;temperature;humidity
22130;DHT22;11231;50.746;4.272;2023-04-01T00:01:32;11.00;99.90
22130;DHT22;11231;50.746;4.272;2023-04-01T00:03:58;11.10;99.90
22130;DHT22;11231;50.746;4.272;2023-04-01T00:06:24;11.00;99.90
22130;DHT22;11231;50.746;4.272;2023-04-01T00:08:50;11.00;99.90
22130;DHT22;11231;50.746;4.272;2023-04-01T00:11:16;11.00;99.90
22130;DHT22;11231;50.746;4.272;2023-04-01T00:13:42;11.00;99.90
22130;DHT22;11231;50.746;4.272;2023-04-01T00:16:08;11.00;99.90
22130;DHT22;11231;50.746;4.272;2023-04-01T00:18:34;11.10;99.90
22130;DHT22;11231;50.746;4.272;2023-04-01T00:20:59;11.10;99.90
22130;DHT22;11231;50.746;4.272;2023-04-01T00:23:25;11.10;99.90
22130;DHT22;11231;50.746;4.272;2023-04-01T00:25:51;11.10;99.90
22130;DHT22;11231;50.746;4.272;2023-04-01T00:28:18;11.10;99.90
22130;DHT22;11231;50.746;4.272;2023-04-01T00:30:45;11.10;99.90
22130;DHT22;11231;50.746;4.272;2023-04-01T00:33:11;11.00;99.90
22130;DHT22;11231;50.746;4.272;2023-04-01T00:35:36;11.00;99.90
22130;DHT22;11231;50.746;4.272;2023-04-01T00:38:03;11.00;99.90
22130;DHT22;11231;50.746;4.272;2023-04-01T00:40:32;11.10;99.90
22130;DHT22;11231;50.746;4.272;2023-04-01T00:42:58;11.00;99.90
22130;DHT22;11231;50.746;4.272;2023-04-01T00:45:32;11.00;99.90
22130;DHT22;11231;50.746;4.272;2023-04-01T00:48:03;11.00;99.90
22130;DHT22;11231;50.746;4.272;2023-04-01T00:50:30;11.00;99.90
22130;DHT22;11231;50.746;4.272;2023-04-01T00:52:59;11.10;99.90
22130;DHT22;11231;50.746;4.272;2023-04-01T00:55:27;11.10;99.90
22130;DHT22;11231;50.746;4.272;2023-04-01T00:57:55;11.20;99.90
22130;DHT22;11231;50.746;4.272;2023-04-01T01:00:22;11.10;99.90
22130;DHT22;11231;50.746;4.272;2023-04-01T01:02:50;11.20;99.90
22130;DHT22;11231;50.746;4.272;2023-04-01T01:05:17;11.20;99.90
22130;DHT22;11231;50.746;4.272;2023-04-01T01:08:01;11.30;99.90
22130;DHT22;11231;50.746;4.272;2023-04-01T01:10:38;11.30;99.90
22130;DHT22;11231;50.746;4.272;2023-04-01T01:13:11;11.20;99.90
22130;DHT22;11231;50.746;4.272;2023-04-01T01:16:10;11.20;99.90
22130;DHT22;11231;50.746;4.272;2023-04-01T01:18:53;11.10;99.90
22130;DHT22;11231;50.746;4.272;2023-04-01T01:21:49;11.00;99.90
22130;DHT22;11231;50.746;4.272;2023-04-01T01:27:18;11.00;99.90
22130;DHT22;11231;50.746;4.272;2023-04-01T01:37:37;11.00;99.90
22130;DHT22;11231;50.746;4.272;2023-04-01T01:40:07;11.00;99.90
22130;DHT22;11231;50.746;4.272;2023-04-01T01:42:38;11.00;99.90
22130;DHT22;11231;50.746;4.272;2023-04-01T01:45:06;11.00;99.90
22130;DHT22;11231;50.746;4.272;2023-04-01T01:47:34;11.00;99.90
22130;DHT22;11231;50.746;4.272;2023-04-01T01:50:02;11.00;99.90
22130;DHT22;11231;50.746;4.272;2023-04-01T01:52:29;11.10;99.90
22130;DHT22;11231;50.746;4.272;2023-04-01T01:54:57;11.10;99.90
22130;DHT22;11231;50.746;4.272;2023-04-01T01:57:34;11.10;99.90
22130;DHT22;11231;50.746;4.272;2023-04-01T02:00:09;11.10;99.90
22130;DHT22;11231;50.746;4.272;2023-04-01T02:02:45;11.10;99.90
22130;DHT22;11231;50.746;4.272;2023-04-01T02:05:17;11.10;99.90
22130;DHT22;11231;50.746;4.272;2023-04-01T02:07:48;11.10;99.90
22130;DHT22;11231;50.746;4.272;2023-04-01T02:10:18;11.10;99.90
22130;DHT22;11231;50.746;4.272;2023-04-01T02:12:46;11.10;99.90
22130;DHT22;11231;50.746;4.272;2023-04-01T02:15:14;11.10;99.90
22130;DHT22;11231;50.746;4.272;2023-04-01T02:17:43;11.10;99.90
22130;DHT22;11231;50.746;4.272;2023-04-01T02:20:19;11.10;99.90
22130;DHT22;11231;50.746;4.272;2023-04-01T02:22:56;11.20;99.90
22130;DHT22;11231;50.746;4.272;2023-04-01T02:25:29;11.20;99.90
22130;DHT22;11231;50.746;4.272;2023-04-01T02:27:57;11.20;99.90
22130;DHT22;11231;50.746;4.272;2023-04-01T02:30:25;11.10;99.90
22130;DHT22;11231;50.746;4.272;2023-04-01T02:32:52;10.90;99.90
22130;DHT22;11231;50.746;4.272;2023-04-01T02:35:19;10.90;99.90
22130;DHT22;11231;50.746;4.272;2023-04-01T02:37:46;10.90;99.90
22130;DHT22;11231;50.746;4.272;2023-04-01T02:40:15;10.90;99.90
22130;DHT22;11231;50.746;4.272;2023-04-01T02:42:41;10.90;99.90
22130;DHT22;11231;50.746;4.272;2023-04-01T02:45:07;10.90;99.90
22130;DHT22;11231;50.746;4.272;2023-04-01T02:47:33;10.90;99.90
22130;DHT22;11231;50.746;4.272;2023-04-01T02:49:59;10.90;99.90
22130;DHT22;11231;50.746;4.272;2023-04-01T02:52:29;10.90;99.90
22130;DHT22;11231;50.746;4.272;2023-04-01T02:54:58;10.90;99.90
22130;DHT22;11231;50.746;4.272;2023-04-01T02:57:25;10.90;99.90
22130;DHT22;11231;50.746;4.272;2023-04-01T02:59:51;11.00;99.90
22130;DHT22;11231;50.746;4.272;2023-04-01T03:02:17;11.00;99.90
22130;DHT22;11231;50.746;4.272;2023-04-01T03:04:42;11.10;99.90
22130;DHT22;11231;50.746;4.272;2023-04-01T03:07:08;11.10;99.90
22130;DHT22;11231;50.746;4.272;2023-04-01T03:09:36;11.10;99.90
22130;DHT22;11231;50.746;4.272;2023-04-01T03:12:02;10.90;99.90
22130;DHT22;11231;50.746;4.272;2023-04-01T03:14:30;10.80;99.90
22130;DHT22;11231;50.746;4.272;2023-04-01T03:16:56;10.80;99.90
22130;DHT22;11231;50.746;4.272;2023-04-01T03:19:22;10.70;99.90
22130;DHT22;11231;50.746;4.272;2023-04-01T03:21:47;10.70;99.90
22130;DHT22;11231;50.746;4.272;2023-04-01T03:24:13;10.70;99.90
22130;DHT22;11231;50.746;4.272;2023-04-01T03:26:39;10.70;99.90
22130;DHT22;11231;50.746;4.272;2023-04-01T03:29:05;10.70;99.90
22130;DHT22;11231;50.746;4.272;2023-04-01T03:31:31;10.60;99.90
22130;DHT22;11231;50.746;4.272;2023-04-01T03:33:57;10.70;99.90
22130;DHT22;11231;50.746;4.272;2023-04-01T03:36:23;10.60;99.90
22130;DHT22;11231;50.746;4.272;2023-04-01T03:38:48;10.60;99.90
22130;DHT22;11231;50.746;4.272;2023-04-01T03:41:20;10.60;99.90
22130;DHT22;11231;50.746;4.272;2023-04-01T03:43:46;10.60;99.90
22130;DHT22;11231;50.746;4.272;2023-04-01T03:46:17;10.60;99.90
22130;DHT22;11231;50.746;4.272;2023-04-01T03:48:43;10.70;99.90
22130;DHT22;11231;50.746;4.272;2023-04-01T03:51:09;10.70;99.90
22130;DHT22;11231;50.746;4.272;2023-04-01T03:53:35;10.70;99.90
22130;DHT22;11231;50.746;4.272;2023-04-01T03:56:05;10.80;99.90
22130;DHT22;11231;50.746;4.272;2023-04-01T03:58:32;10.80;99.90
22130;DHT22;11231;50.746;4.272;2023-04-01T04:01:01;10.80;99.90
22130;DHT22;11231;50.746;4.272;2023-04-01T04:03:27;10.80;99.90
22130;DHT22;11231;50.746;4.272;2023-04-01T04:05:53;10.80;99.90
22130;DHT22;11231;50.746;4.272;2023-04-01T04:08:21;10.80;99.90
22130;DHT22;11231;50.746;4.272;2023-04-01T04:10:47;10.80;99.90
22130;DHT22;11231;50.746;4.272;2023-04-01T04:13:19;10.90;99.90
22130;DHT22;11231;50.746;4.272;2023-04-01T04:15:50;10.90;99.90
22130;DHT22;11231;50.746;4.272;2023-04-01T04:18:15;10.90;99.90
22130;DHT22;11231;50.746;4.272;2023-04-01T04:20:47;10.90;99.90
22130;DHT22;11231;50.746;4.272;2023-04-01T04:23:15;10.80;99.90
22130;DHT22;11231;50.746;4.272;2023-04-01T04:25:41;10.80;99.90
22130;DHT22;11231;50.746;4.272;2023-04-01T04:28:07;10.90;99.90
22130;DHT22;11231;50.746;4.272;2023-04-01T04:30:34;10.80;99.90
22130;DHT22;11231;50.746;4.272;2023-04-01T04:33:00;10.90;99.90
22130;DHT22;11231;50.746;4.272;2023-04-01T04:35:26;10.90;99.90
22130;DHT22;11231;50.746;4.272;2023-04-01T04:37:51;10.90;99.90
22130;DHT22;11231;50.746;4.272;2023-04-01T04:40:17;11.00;99.90
22130;DHT22;11231;50.746;4.272;2023-04-01T04:42:43;11.00;99.90
22130;DHT22;11231;50.746;4.272;2023-04-01T04:45:12;11.00;99.90
22130;DHT22;11231;50.746;4.272;2023-04-01T04:47:42;11.00;99.90
22130;DHT22;11231;50.746;4.272;2023-04-01T04:50:09;11.00;99.90
22130;DHT22;11231;50.746;4.272;2023-04-01T04:52:36;11.00;99.90
22130;DHT22;11231;50.746;4.272;2023-04-01T04:55:02;11.00;99.90
22130;DHT22;11231;50.746;4.272;2023-04-01T04:57:28;10.90;99.90
22130;DHT22;11231;50.746;4.272;2023-04-01T04:59:54;11.00;99.90
22130;DHT22;11231;50.746;4.272;2023-04-01T05:02:36;11.00;99.90
22130;DHT22;11231;50.746;4.272;2023-04-01T05:05:02;10.90;99.90
22130;DHT22;11231;50.746;4.272;2023-04-01T05:07:27;10.80;99.90
22130;DHT22;11231;50.746;4.272;2023-04-01T05:09:53;10.80;99.90
22130;DHT22;11231;50.746;4.272;2023-04-01T05:12:19;10.80;99.90
22130;DHT22;11231;50.746;4.272;2023-04-01T05:14:56;10.90;99.90
22130;DHT22;11231;50.746;4.272;2023-04-01T05:17:23;10.80;99.90
22130;DHT22;11231;50.746;4.272;2023-04-01T05:19:48;10.80;99.90
22130;DHT22;11231;50.746;4.272;2023-04-01T05:22:14;10.80;99.90
22130;DHT22;11231;50.746;4.272;2023-04-01T05:24:40;10.90;99.90
22130;DHT22;11231;50.746;4.272;2023-04-01T05:27:06;10.90;99.90
22130;DHT22;11231;50.746;4.272;2023-04-01T05:29:34;10.80;99.90
22130;DHT22;11231;50.746;4.272;2023-04-01T05:32:04;10.80;99.90
22130;DHT22;11231;50.746;4.272;2023-04-01T05:34:30;10.70;99.90
22130;DHT22;11231;50.746;4.272;2023-04-01T05:36:56;10.50;99.90
22130;DHT22;11231;50.746;4.272;2023-04-01T05:39:22;10.50;99.90
22130;DHT22;11231;50.746;4.272;2023-04-01T05:41:49;10.50;99.90
22130;DHT22;11231;50.746;4.272;2023-04-01T05:44:15;10.50;99.90
22130;DHT22;11231;50.746;4.272;2023-04-01T05:46:41;10.50;99.90
22130;DHT22;11231;50.746;4.272;2023-04-01T05:49:25;10.60;99.90
22130;DHT22;11231;50.746;4.272;2023-04-01T05:51:51;10.60;99.90
22130;DHT22;11231;50.746;4.272;2023-04-01T05:54:18;10.70;99.90
22130;DHT22;11231;50.746;4.272;2023-04-01T05:56:45;10.60;99.90
22130;DHT22;11231;50.746;4.272;2023-04-01T05:59:11;10.70;99.90
22130;DHT22;11231;50.746;4.272;2023-04-01T06:01:38;10.70;99.90
22130;DHT22;11231;50.746;4.272;2023-04-01T06:04:03;10.60;99.90
22130;DHT22;11231;50.746;4.272;2023-04-01T06:06:30;10.60;99.90
22130;DHT22;11231;50.746;4.272;2023-04-01T06:09:18;10.60;99.90
22130;DHT22;11231;50.746;4.272;2023-04-01T06:20:25;10.60;99.90
22130;DHT22;11231;50.746;4.272;2023-04-01T06:34:19;10.70;99.90
22130;DHT22;11231;50.746;4.272;2023-04-01T06:46:38;10.80;99.90
22130;DHT22;11231;50.746;4.272;2023-04-01T06:55:44;10.90;99.90
22130;DHT22;11231;50.746;4.272;2023-04-01T06:58:39;11.00;99.90
22130;DHT22;11231;50.746;4.272;2023-04-01T07:01:16;10.90;99.90
22130;DHT22;11231;50.746;4.272;2023-04-01T07:06:46;10.90;99.90
22130;DHT22;11231;50.746;4.272;2023-04-01T07:09:18;10.80;99.90
22130;DHT22;11231;50.746;4.272;2023-04-01T07:12:13;11.00;99.90
22130;DHT22;11231;50.746;4.272;2023-04-01T07:15:28;11.00;99.90
22130;DHT22;11231;50.746;4.272;2023-04-01T07:18:01;11.10;99.90
22130;DHT22;11231;50.746;4.272;2023-04-01T07:20:32;11.10;99.90
22130;DHT22;11231;50.746;4.272;2023-04-01T07:23:02;11.00;99.90
22130;DHT22;11231;50.746;4.272;2023-04-01T07:25:43;11.00;99.90
22130;DHT22;11231;50.746;4.272;2023-04-01T07:28:32;10.90;99.90
22130;DHT22;11231;50.746;4.272;2023-04-01T07:34:09;11.20;99.90
22130;DHT22;11231;50.746;4.272;2023-04-01T07:36:43;11.20;99.90
22130;DHT22;11231;50.746;4.272;2023-04-01T07:44:59;11.30;99.90
22130;DHT22;11231;50.746;4.272;2023-04-01T07:47:48;11.40;99.90
22130;DHT22;11231;50.746;4.272;2023-04-01T07:50:34;11.30;99.90
22130;DHT22;11231;50.746;4.272;2023-04-01T07:53:43;11.30;99.90
22130;DHT22;11231;50.746;4.272;2023-04-01T08:05:03;11.50;99.90
22130;DHT22;11231;50.746;4.272;2023-04-01T08:07:45;11.50;99.90
22130;DHT22;11231;50.746;4.272;2023-04-01T08:10:46;11.40;99.90
22130;DHT22;11231;50.746;4.272;2023-04-01T08:16:46;11.40;99.90
22130;DHT22;11231;50.746;4.272;2023-04-01T08:22:02;11.40;99.90
22130;DHT22;11231;50.746;4.272;2023-04-01T08:27:09;11.50;99.90
22130;DHT22;11231;50.746;4.272;2023-04-01T08:29:49;11.50;99.90
22130;DHT22;11231;50.746;4.272;2023-04-01T08:32:25;11.60;99.90
22130;DHT22;11231;50.746;4.272;2023-04-01T08:35:27;11.80;99.90
22130;DHT22;11231;50.746;4.272;2023-04-01T08:37:57;11.80;99.90
22130;DHT22;11231;50.746;4.272;2023-04-01T08:40:56;11.90;99.90
22130;DHT22;11231;50.746;4.272;2023-04-01T08:49:03;11.80;99.90
22130;DHT22;11231;50.746;4.272;2023-04-01T08:51:40;11.50;99.90
22130;DHT22;11231;50.746;4.272;2023-04-01T08:56:47;11.40;99.90
22130;DHT22;11231;50.746;4.272;2023-04-01T09:13:40;11.90;99.90
22130;DHT22;11231;50.746;4.272;2023-04-01T09:19:15;11.60;99.90
22130;DHT22;11231;50.746;4.272;2023-04-01T09:24:35;11.60;99.90
22130;DHT22;11231;50.746;4.272;2023-04-01T09:27:18;11.90;99.90
22130;DHT22;11231;50.746;4.272;2023-04-01T09:36:18;12.30;99.90
22130;DHT22;11231;50.746;4.272;2023-04-01T09:39:23;12.50;99.90
22130;DHT22;11231;50.746;4.272;2023-04-01T09:42:14;12.60;99.90
22130;DHT22;11231;50.746;4.272;2023-04-01T09:45:01;12.80;99.90
22130;DHT22;11231;50.746;4.272;2023-04-01T09:47:46;12.90;99.90
22130;DHT22;11231;50.746;4.272;2023-04-01T09:50:34;12.90;99.90
22130;DHT22;11231;50.746;4.272;2023-04-01T09:53:19;12.90;99.90
22130;DHT22;11231;50.746;4.272;2023-04-01T10:07:52;12.80;99.90
22130;DHT22;11231;50.746;4.272;2023-04-01T10:11:00;12.90;99.90
22130;DHT22;11231;50.746;4.272;2023-04-01T10:13:42;13.00;99.90
22130;DHT22;11231;50.746;4.272;2023-04-01T10:17:14;12.80;99.90
22130;DHT22;11231;50.746;4.272;2023-04-01T10:25:32;13.00;99.90
22130;DHT22;11231;50.746;4.272;2023-04-01T10:36:57;13.60;99.90
22130;DHT22;11231;50.746;4.272;2023-04-01T10:54:27;12.80;99.90
22130;DHT22;11231;50.746;4.272;2023-04-01T10:57:07;12.80;99.90
22130;DHT22;11231;50.746;4.272;2023-04-01T11:23:16;13.00;99.90
22130;DHT22;11231;50.746;4.272;2023-04-01T11:43:46;13.00;99.90
22130;DHT22;11231;50.746;4.272;2023-04-01T12:06:19;13.80;99.90
22130;DHT22;11231;50.746;4.272;2023-04-01T12:11:58;13.50;99.90
22130;DHT22;11231;50.746;4.272;2023-04-01T12:28:41;13.40;99.90
22130;DHT22;11231;50.746;4.272;2023-04-01T12:36:54;12.90;99.90
22130;DHT22;11231;50.746;4.272;2023-04-01T12:42:29;12.70;99.90
22130;DHT22;11231;50.746;4.272;2023-04-01T13:12:50;12.40;99.90
22130;DHT22;11231;50.746;4.272;2023-04-01T13:26:26;12.10;99.90
22130;DHT22;11231;50.746;4.272;2023-04-01T13:28:59;12.30;99.90
22130;DHT22;11231;50.746;4.272;2023-04-01T13:37:21;12.20;99.90
22130;DHT22;11231;50.746;4.272;2023-04-01T13:40:14;12.20;99.90
22130;DHT22;11231;50.746;4.272;2023-04-01T13:43:02;12.20;99.90
22130;DHT22;11231;50.746;4.272;2023-04-01T13:45:48;12.30;99.90
22130;DHT22;11231;50.746;4.272;2023-04-01T13:48:36;12.30;99.90
22130;DHT22;11231;50.746;4.272;2023-04-01T14:08:42;11.90;99.90
22130;DHT22;11231;50.746;4.272;2023-04-01T14:13:59;11.60;99.90
22130;DHT22;11231;50.746;4.272;2023-04-01T14:22:38;11.60;99.90
22130;DHT22;11231;50.746;4.272;2023-04-01T14:25:22;11.70;99.90
22130;DHT22;11231;50.746;4.272;2023-04-01T14:28:10;11.90;99.90
22130;DHT22;11231;50.746;4.272;2023-04-01T14:33:15;12.10;99.90
22130;DHT22;11231;50.746;4.272;2023-04-01T14:36:24;12.30;99.90
22130;DHT22;11231;50.746;4.272;2023-04-01T14:47:54;12.40;99.90
22130;DHT22;11231;50.746;4.272;2023-04-01T14:50:24;12.10;99.90
22130;DHT22;11231;50.746;4.272;2023-04-01T14:53:11;11.80;99.90
22130;DHT22;11231;50.746;4.272;2023-04-01T14:58:14;11.50;99.90
22130;DHT22;11231;50.746;4.272;2023-04-01T15:01:10;11.40;99.90
22130;DHT22;11231;50.746;4.272;2023-04-01T15:09:30;11.60;99.90
22130;DHT22;11231;50.746;4.272;2023-04-01T15:26:25;11.70;99.90
22130;DHT22;11231;50.746;4.272;2023-04-01T15:37:42;11.70;99.90
22130;DHT22;11231;50.746;4.272;2023-04-01T16:00:31;11.80;99.90
22130;DHT22;11231;50.746;4.272;2023-04-01T16:05:37;11.80;99.90
22130;DHT22;11231;50.746;4.272;2023-04-01T16:13:37;11.70;99.90
22130;DHT22;11231;50.746;4.272;2023-04-01T16:16:19;11.60;99.90
22130;DHT22;11231;50.746;4.272;2023-04-01T16:22:32;11.50;99.90
22130;DHT22;11231;50.746;4.272;2023-04-01T16:25:32;11.10;99.90
22130;DHT22;11231;50.746;4.272;2023-04-01T16:28:29;11.10;99.90
22130;DHT22;11231;50.746;4.272;2023-04-01T16:34:08;11.20;99.90
22130;DHT22;11231;50.746;4.272;2023-04-01T16:36:48;10.90;99.90
22130;DHT22;11231;50.746;4.272;2023-04-01T16:42:24;11.20;99.90
22130;DHT22;11231;50.746;4.272;2023-04-01T16:47:30;10.90;99.90
22130;DHT22;11231;50.746;4.272;2023-04-01T16:50:22;11.00;99.90
22130;DHT22;11231;50.746;4.272;2023-04-01T16:53:02;11.00;99.90
22130;DHT22;11231;50.746;4.272;2023-04-01T16:55:48;11.20;99.90
22130;DHT22;11231;50.746;4.272;2023-04-01T16:58:54;11.30;99.90
22130;DHT22;11231;50.746;4.272;2023-04-01T17:01:23;11.30;99.90
22130;DHT22;11231;50.746;4.272;2023-04-01T17:03:57;11.20;99.90
22130;DHT22;11231;50.746;4.272;2023-04-01T17:06:34;11.20;99.90
22130;DHT22;11231;50.746;4.272;2023-04-01T17:09:19;11.30;99.90
22130;DHT22;11231;50.746;4.272;2023-04-01T17:17:43;11.20;99.90
22130;DHT22;11231;50.746;4.272;2023-04-01T17:23:05;11.20;99.90
22130;DHT22;11231;50.746;4.272;2023-04-01T17:25:54;11.30;99.90
22130;DHT22;11231;50.746;4.272;2023-04-01T17:28:41;11.30;99.90
22130;DHT22;11231;50.746;4.272;2023-04-01T17:34:01;11.40;99.90
22130;DHT22;11231;50.746;4.272;2023-04-01T17:36:43;11.30;99.90
22130;DHT22;11231;50.746;4.272;2023-04-01T17:42:15;11.40;99.90
22130;DHT22;11231;50.746;4.272;2023-04-01T17:45:00;11.40;99.90
22130;DHT22;11231;50.746;4.272;2023-04-01T17:47:36;11.30;99.90
22130;DHT22;11231;50.746;4.272;2023-04-01T17:53:14;11.20;99.90
22130;DHT22;11231;50.746;4.272;2023-04-01T17:55:59;11.10;99.90
22130;DHT22;11231;50.746;4.272;2023-04-01T18:04:15;10.90;99.90
22130;DHT22;11231;50.746;4.272;2023-04-01T18:06:59;11.00;99.90
22130;DHT22;11231;50.746;4.272;2023-04-01T18:20:25;10.90;99.90
22130;DHT22;11231;50.746;4.272;2023-04-01T18:23:00;10.90;99.90
22130;DHT22;11231;50.746;4.272;2023-04-01T18:25:38;11.00;99.90
22130;DHT22;11231;50.746;4.272;2023-04-01T18:30:39;11.00;99.90
22130;DHT22;11231;50.746;4.272;2023-04-01T18:38:13;10.90;99.90
22130;DHT22;11231;50.746;4.272;2023-04-01T18:43:59;10.70;99.90
22130;DHT22;11231;50.746;4.272;2023-04-01T18:46:47;10.70;99.90
22130;DHT22;11231;50.746;4.272;2023-04-01T18:52:43;10.80;99.90
22130;DHT22;11231;50.746;4.272;2023-04-01T19:03:23;11.10;99.90
22130;DHT22;11231;50.746;4.272;2023-04-01T19:05:52;11.20;99.90
22130;DHT22;11231;50.746;4.272;2023-04-01T19:08:31;11.00;99.90
22130;DHT22;11231;50.746;4.272;2023-04-01T19:19:05;10.80;99.90
22130;DHT22;11231;50.746;4.272;2023-04-01T19:21:42;10.70;99.90
22130;DHT22;11231;50.746;4.272;2023-04-01T19:27:28;10.70;99.90
22130;DHT22;11231;50.746;4.272;2023-04-01T19:38:39;10.50;99.90
22130;DHT22;11231;50.746;4.272;2023-04-01T19:41:46;10.50;99.90
22130;DHT22;11231;50.746;4.272;2023-04-01T19:47:12;10.50;99.90
22130;DHT22;11231;50.746;4.272;2023-04-01T19:50:23;10.40;99.90
22130;DHT22;11231;50.746;4.272;2023-04-01T19:52:46;10.50;99.90
22130;DHT22;11231;50.746;4.272;2023-04-01T19:55:35;10.40;99.90
22130;DHT22;11231;50.746;4.272;2023-04-01T19:58:19;10.20;99.90
22130;DHT22;11231;50.746;4.272;2023-04-01T20:00:54;10.10;99.90
22130;DHT22;11231;50.746;4.272;2023-04-01T20:03:44;10.20;99.90
22130;DHT22;11231;50.746;4.272;2023-04-01T20:06:24;10.30;99.90
22130;DHT22;11231;50.746;4.272;2023-04-01T20:12:08;10.40;99.90
22130;DHT22;11231;50.746;4.272;2023-04-01T20:14:51;10.50;99.90
22130;DHT22;11231;50.746;4.272;2023-04-01T20:20:18;10.50;99.90
22130;DHT22;11231;50.746;4.272;2023-04-01T20:35:57;10.40;99.90
22130;DHT22;11231;50.746;4.272;2023-04-01T20:47:06;10.60;99.90
22130;DHT22;11231;50.746;4.272;2023-04-01T20:57:29;10.50;99.90
22130;DHT22;11231;50.746;4.272;2023-04-01T21:00:29;10.60;99.90
22130;DHT22;11231;50.746;4.272;2023-04-01T21:08:53;10.50;99.90
22130;DHT22;11231;50.746;4.272;2023-04-01T21:11:41;10.50;99.90
22130;DHT22;11231;50.746;4.272;2023-04-01T21:25:30;10.60;99.90
22130;DHT22;11231;50.746;4.272;2023-04-01T21:36:09;10.60;99.90
22130;DHT22;11231;50.746;4.272;2023-04-01T21:41:11;10.50;99.90
22130;DHT22;11231;50.746;4.272;2023-04-01T21:46:58;10.40;99.90
22130;DHT22;11231;50.746;4.272;2023-04-01T21:58:06;10.60;99.90
22130;DHT22;11231;50.746;4.272;2023-04-01T22:01:01;10.70;99.90
22130;DHT22;11231;50.746;4.272;2023-04-01T22:06:40;10.60;99.90
22130;DHT22;11231;50.746;4.272;2023-04-01T22:09:18;10.60;99.90
22130;DHT22;11231;50.746;4.272;2023-04-01T22:11:57;10.60;99.90
22130;DHT22;11231;50.746;4.272;2023-04-01T22:14:38;10.60;99.90
22130;DHT22;11231;50.746;4.272;2023-04-01T22:17:18;10.60;99.90
22130;DHT22;11231;50.746;4.272;2023-04-01T22:22:28;10.60;99.90
22130;DHT22;11231;50.746;4.272;2023-04-01T22:25:02;10.60;99.90
22130;DHT22;11231;50.746;4.272;2023-04-01T22:27:46;10.70;99.90
22130;DHT22;11231;50.746;4.272;2023-04-01T22:32:46;10.70;99.90
22130;DHT22;11231;50.746;4.272;2023-04-01T22:35:28;10.60;99.90
22130;DHT22;11231;50.746;4.272;2023-04-01T22:40:34;10.70;99.90
22130;DHT22;11231;50.746;4.272;2023-04-01T22:43:02;10.60;99.90
22130;DHT22;11231;50.746;4.272;2023-04-01T22:51:20;10.60;99.90
22130;DHT22;11231;50.746;4.272;2023-04-01T22:53:52;10.50;99.90
22130;DHT22;11231;50.746;4.272;2023-04-01T23:02:28;10.60;99.90
22130;DHT22;11231;50.746;4.272;2023-04-01T23:04:58;10.30;99.90
22130;DHT22;11231;50.746;4.272;2023-04-01T23:10:05;10.30;99.90
22130;DHT22;11231;50.746;4.272;2023-04-01T23:12:38;10.40;99.90
22130;DHT22;11231;50.746;4.272;2023-04-01T23:15:12;10.50;99.90
22130;DHT22;11231;50.746;4.272;2023-04-01T23:20:27;10.50;99.90
22130;DHT22;11231;50.746;4.272;2023-04-01T23:23:00;10.40;99.90
22130;DHT22;11231;50.746;4.272;2023-04-01T23:33:29;10.40;99.90
22130;DHT22;11231;50.746;4.272;2023-04-01T23:36:13;10.20;99.90
22130;DHT22;11231;50.746;4.272;2023-04-01T23:38:47;10.10;99.90
22130;DHT22;11231;50.746;4.272;2023-04-01T23:41:28;10.00;99.90
22130;DHT22;11231;50.746;4.272;2023-04-01T23:44:16;9.90;99.90
22130;DHT22;11231;50.746;4.272;2023-04-01T23:46:45;9.90;99.90
22130;DHT22;11231;50.746;4.272;2023-04-01T23:49:18;9.80;99.90
22130;DHT22;11231;50.746;4.272;2023-04-01T23:52:16;9.80;99.90
22130;DHT22;11231;50.746;4.272;2023-04-01T23:55:01;9.90;99.90
22130;DHT22;11231;50.746;4.272;2023-04-01T23:57:33;9.90;99.90
